Pocopson, Pennsylvania
Current Conditions -  °F | °C
As of 4:55 AM on Sunday 21 Dec 2014 (Local Time) from KMQS Reporting Station
Overcast Overcast  
Wind Chill: 28°   Ceiling: 2900
Heat Index: 28°   Visibility: 7mi
Dew Point: 25°   Wind: 3mph
Humidity: 86%   Direction: 310°NW
Pressure: 30.27"   Gusts: NA
Location:  39.9°N, 75.62°W
Report Text: KMQS 210955Z AUTO 31003KT 7SM OVC029 M02/M04 A3027 RMK AO2
Loading
Personal Weather Stations






























Interactive Weather Map New forecast layout! Learn more

10-Day Weather Forecast

Advertisements
Track Severe Weather on mobile